Карточка аэропорта UOOO

Внимание!
Информация на этой странице в стадии наполнения.
Если вы не увидели какой-то информации, или заметили неточность - пожалуйста сообщите нам!
Спасибо!
Команда RU-STAFF
Название аэропортаАлыкель
Название аэропорта (англ.)Alykel
Превышение574 ft. (175 m.)
Координаты69°19.02', 87°19.02'
Высота перехода1200m
Эшелон переходаQFE>744:FL60;744>QFE>717:FL70;717>QFE:FL80
Коды ответчика5401-5427
Зона ОрВДКрасноярск РПИ (UNKL)
Данные METARUOOO 241230Z 17008MPS CAVOK M21/M24 Q1029 R19/810360 NOSIG RMK QFE755/1007
Проноз погоды (TAF)UOOO 241046Z 2412/2512 17008G18MPS 6000 BLSN SCT016 TEMPO 2412/2503 3200 BLSN BKN011 BECMG 2503/2507 18013G22MPS 1300 BLSN TEMPO 2507/2512 0700 BLSN
NOTAMshow/hide NOTAM
AWOS   TABLE

Информация о ВПП

ВПП Длина ВПП (м.) Покрытие Курс ВПП Частота ILS
013430Бетон13109.5
193430Бетон193110.3

Диспетчерские позиции

Позывной Наименование органа УВД Частота
UOOO_TWRНорильск - Старт118.300
UOOO_R_APPНорильск - Круг120.400
UOOO_GNDНорильск - Руление121.700



Спутниковое изображение